ADDS METAR Data INFO
IDs: Format: Raw Decoded Include TAF

Data at: 2204 UTC 24 Feb 2018

KBHK 242151Z AUTO 25010KT 10SM CLR M06/M11 A2964 RMK AO2 SLP085 T10611111
KBHK 242051Z AUTO 26013KT 10SM CLR M06/M11 A2965 RMK AO2 SLP091 T10611111 58021
KBHK 241951Z AUTO 26012KT 10SM CLR M07/M12 A2967 RMK AO2 SLP101 T10671117
KBHK 241851Z AUTO 26016KT 10SM CLR M08/M13 A2969 RMK AO2 SLP111 T10781128
KBHK 241751Z AUTO 26013KT 10SM CLR M09/M14 A2972 RMK AO2 SLP118 T10891139 11089 21161 56013
KBHK 241651Z AUTO 26014KT 10SM CLR M10/M14 A2973 RMK AO2 SLP122 T11001144
KBHK 241551Z AUTO 25015KT 10SM CLR M12/M16 A2974 RMK AO2 SLP128 T11171156
KBHK 241451Z AUTO 28004KT 10SM CLR M15/M17 A2976 RMK AO2 SLP133 T11501172 55003
KBHK 241351Z AUTO 30004KT 10SM CLR M14/M17 A2975 RMK AO2 SLP132 T11441167
KBHK 241251Z AUTO 26006KT 10SM BKN070 M15/M17 A2975 RMK AO2 SLP134 T11501172
KBHK 241151Z AUTO 00000KT 10SM OVC055 M16/M19 A2977 RMK AO2 SLP140 T11611189 11161 21206 58024
KBHK 241051Z AUTO 00000KT 10SM SCT110 M17/M20 A2980 RMK AO2 SLP150 T11721200
KBHK 240951Z AUTO 00000KT 10SM BKN110 M17/M19 A2982 RMK AO2 SLP155 T11671194
KBHK 240851Z AUTO 10005KT 10SM CLR M19/M22 A2984 RMK AO2 SLP170 T11891217 56021
KBHK 240751Z AUTO 09007KT 10SM CLR M19/M22 A2985 RMK AO2 SLP175 T11941222
KBHK 240651Z AUTO 12008KT 10SM CLR M20/M22 A2989 RMK AO2 SLP189 T12001222 411111261
KBHK 240551Z AUTO 15009KT 10SM CLR M18/M21 A2991 RMK AO2 SLP197 T11781211 11122 21183 58025
KBHK 240451Z AUTO 13010KT 10SM CLR M17/M21 A2995 RMK AO2 SLP212 T11721206
KBHK 240351Z AUTO 12009KT 10SM CLR M17/M20 A2998 RMK AO2 SLP229 T11671200
KBHK 240251Z AUTO 15011G18KT 10SM CLR M13/M18 A3000 RMK AO2 SLP228 T11281183 58009
KBHK 240151Z AUTO 17006KT 10SM CLR M14/M18 A3002 RMK AO2 SLP240 T11441183
KBHK 240051Z AUTO 15011KT 10SM CLR M15/M18 A3001 RMK AO2 SLP239 T11501183
KBHK 232351Z AUTO 11008KT 10SM CLR M14/M17 A3002 RMK AO2 SLP240 T11391167 11111 21167 58016
KBHK 232251Z AUTO 14008KT 10SM CLR M13/M15 A3004 RMK AO2 SLP244 T11281150
KBHK 232151Z AUTO 17008KT 10SM CLR M11/M14 A3006 RMK AO2 SLP245 T11111144
KBHK 232051Z AUTO 11005KT 10SM CLR M13/M16 A3008 RMK AO2 SLP254 T11331161 58026
KBHK 231951Z AUTO 12005KT 10SM CLR M14/M17 A3011 RMK AO2 SLP268 T11441172
KBHK 231851Z AUTO 00000KT 10SM CLR M16/M18 A3014 RMK AO2 SLP280 T11611183
KBHK 231751Z AUTO 00000KT 10SM CLR M17/M19 A3016 RMK AO2 SLP286 I6000 T11671194 11167 21261 58004
KBHK 231651Z AUTO 11003KT 10SM CLR M19/M21 A3017 RMK AO2 SLP294 T11941211
KBHK 231551Z AUTO 00000KT 10SM CLR M24/M26 A3018 RMK AO2 SLP301 T12441256
KBHK 231451Z AUTO 00000KT 10SM CLR M24/M25 A3018 RMK AO2 SLP299 I3000 T12441250 53000
KBHK 231351Z AUTO 00000KT 10SM CLR M25/M27 A3018 RMK AO2 SLP301 I1000 T12501267
KBHK 231251Z AUTO 00000KT 10SM CLR M25/M26 A3017 RMK AO2 SLP293 I1000 T12501261
KBHK 231151Z AUTO 00000KT 10SM CLR M24/M26 A3017 RMK AO2 SLP292 I6000 T12391256 11194 21239 56001
KBHK 231051Z AUTO 30005KT 10SM CLR M23/M25 A3018 RMK AO2 SLP286 I1000 T12331250